createdAt,value
2023-03-23T15:58:13.355Z,7.50
2023-03-23T16:00:43.954Z,8.00
2023-03-23T16:03:22.842Z,7.30
2023-03-23T16:05:52.103Z,7.10
2023-03-23T16:08:21.415Z,7.30
2023-03-23T16:10:51.192Z,9.90
2023-03-23T16:13:19.879Z,6.70
2023-03-23T16:15:48.872Z,6.10
2023-03-23T16:18:19.810Z,7.20
2023-03-23T16:20:49.727Z,6.30
2023-03-23T16:23:19.026Z,6.50
2023-03-23T16:25:47.704Z,9.40
2023-03-23T16:28:17.443Z,7.90
2023-03-23T16:30:46.274Z,7.70
2023-03-23T16:33:15.213Z,8.50
2023-03-23T16:35:44.537Z,8.90
2023-03-23T16:38:16.699Z,8.00
2023-03-23T16:40:47.166Z,10.90
2023-03-23T16:43:16.892Z,7.70
2023-03-23T16:45:47.473Z,7.60
2023-03-23T16:48:18.268Z,7.70
2023-03-23T16:50:48.097Z,7.80
2023-03-23T16:53:17.484Z,10.10
2023-03-23T16:55:48.698Z,8.90
2023-03-23T16:58:18.567Z,8.20
2023-03-23T17:00:52.743Z,7.50
2023-03-23T17:03:22.469Z,7.50
2023-03-23T17:05:52.835Z,8.10
2023-03-23T17:08:21.718Z,7.00
2023-03-23T17:10:51.831Z,7.20
2023-03-23T17:13:21.722Z,9.50
2023-03-23T17:15:53.789Z,7.80
2023-03-23T17:18:25.414Z,8.70
2023-03-23T17:20:55.127Z,9.00
2023-03-23T17:23:24.890Z,8.70
2023-03-23T17:25:55.262Z,8.50
2023-03-23T17:28:24.707Z,8.90
2023-03-23T17:30:55.097Z,8.50
2023-03-23T17:33:25.030Z,7.90
2023-03-23T17:35:55.490Z,9.20
2023-03-23T17:38:25.761Z,9.00
2023-03-23T17:40:59.414Z,8.40
2023-03-23T17:43:30.918Z,9.90
2023-03-23T17:46:01.261Z,13.50
2023-03-23T17:48:31.517Z,9.70
2023-03-23T17:51:02.786Z,13.10
2023-03-23T17:53:40.353Z,12.30
2023-03-23T17:56:13.026Z,12.10
2023-03-23T17:58:42.703Z,10.70
2023-03-23T18:01:13.996Z,11.00
2023-03-23T18:03:45.365Z,8.50
2023-03-23T18:06:15.625Z,9.10
2023-03-23T18:08:46.519Z,11.50
2023-03-23T18:11:18.343Z,11.60
2023-03-23T18:13:49.594Z,12.10
2023-03-23T18:16:24.398Z,11.00
2023-03-23T18:18:56.421Z,12.90
2023-03-23T18:21:27.755Z,10.60
2023-03-23T18:23:59.527Z,10.20
2023-03-23T18:26:33.244Z,11.20
2023-03-23T18:29:04.619Z,12.50
2023-03-23T18:31:40.724Z,11.40
2023-03-23T18:34:11.609Z,11.00
2023-03-23T18:36:42.482Z,11.50
2023-03-23T18:39:13.604Z,11.60
2023-03-23T18:41:44.485Z,11.00
2023-03-23T18:44:16.411Z,10.00
2023-03-23T18:46:46.744Z,8.80
2023-03-23T18:49:17.168Z,10.00
2023-03-23T18:51:50.127Z,9.70
2023-03-23T18:54:20.526Z,10.20
2023-03-23T18:56:51.419Z,10.10
2023-03-23T18:59:25.332Z,11.50
2023-03-23T19:01:56.518Z,11.20
2023-03-23T19:04:32.921Z,10.40
2023-03-23T19:07:04.567Z,11.50
2023-03-23T19:09:36.225Z,13.50
2023-03-23T19:12:13.346Z,12.40
2023-03-23T19:14:45.732Z,13.40
2023-03-23T19:17:19.254Z,13.20
2023-03-23T19:19:50.434Z,10.80
2023-03-23T19:22:22.005Z,11.50
2023-03-23T19:24:54.950Z,13.30
2023-03-23T19:27:26.417Z,17.40
2023-03-23T19:29:56.904Z,17.40
2023-03-23T19:32:29.922Z,16.00
2023-03-23T19:35:03.381Z,12.30
2023-03-23T19:37:45.248Z,12.20
2023-03-23T19:40:49.877Z,14.50
2023-03-23T19:43:09.953Z,13.40
2023-03-23T19:45:42.860Z,13.50
2023-03-23T19:48:13.926Z,11.10
2023-03-23T19:50:49.208Z,13.40
2023-03-23T19:53:21.567Z,13.20
2023-03-23T19:55:55.189Z,10.70
2023-03-23T19:58:28.380Z,8.90
2023-03-23T20:01:03.933Z,10.70
2023-03-23T20:03:36.815Z,10.80
2023-03-23T20:06:13.045Z,10.70
2023-03-23T20:08:48.776Z,11.90
2023-03-23T20:11:23.314Z,10.10
2023-03-23T20:13:56.653Z,11.20
2023-03-23T20:16:29.218Z,13.40
2023-03-23T20:19:02.929Z,12.90
2023-03-23T20:21:36.293Z,10.90
2023-03-23T20:24:09.530Z,10.20
2023-03-23T20:26:42.518Z,10.60
2023-03-23T20:29:15.163Z,12.10
2023-03-23T20:31:47.096Z,10.90
2023-03-23T20:34:29.728Z,11.30
2023-03-23T20:37:02.849Z,13.10
2023-03-23T20:39:38.136Z,10.50
2023-03-23T20:42:09.092Z,10.90
2023-03-23T20:44:40.675Z,11.50
2023-03-23T20:47:14.598Z,12.10
2023-03-23T20:49:53.184Z,11.40
2023-03-23T20:52:26.377Z,11.20
2023-03-23T20:54:57.496Z,11.20
2023-03-23T20:57:28.041Z,11.70
2023-03-23T20:59:58.587Z,10.70
2023-03-23T21:02:30.536Z,13.60
2023-03-23T21:05:06.991Z,10.40
2023-03-23T21:07:37.476Z,12.60
2023-03-23T21:10:10.057Z,12.60
2023-03-23T21:12:40.307Z,12.40
2023-03-23T21:15:10.466Z,10.70
2023-03-23T21:17:41.309Z,9.70
2023-03-23T21:20:12.411Z,12.00
2023-03-23T21:22:43.948Z,11.00
2023-03-23T21:25:15.827Z,11.90
2023-03-23T21:27:44.609Z,10.80
2023-03-23T21:30:13.870Z,9.60
2023-03-23T21:32:43.327Z,9.70
2023-03-23T21:35:13.025Z,9.30
2023-03-23T21:37:42.327Z,13.90
2023-03-23T21:40:14.388Z,8.60
2023-03-23T21:42:44.707Z,8.90
2023-03-23T21:45:18.907Z,8.30
2023-03-23T21:47:48.971Z,10.40
2023-03-23T21:50:18.349Z,9.30
2023-03-23T21:52:51.334Z,8.30
2023-03-23T21:55:20.327Z,9.40
2023-03-23T21:57:49.308Z,8.00
2023-03-23T22:00:19.214Z,9.90
2023-03-23T22:02:49.085Z,7.90
2023-03-23T22:05:18.418Z,9.40
2023-03-23T22:07:48.578Z,9.30
2023-03-23T22:10:17.648Z,9.00
2023-03-23T22:12:48.274Z,7.80
2023-03-23T22:15:18.401Z,8.00
2023-03-23T22:17:47.233Z,8.00
2023-03-23T22:20:16.182Z,9.50
2023-03-23T22:22:44.956Z,8.30
2023-03-23T22:25:14.268Z,7.70
2023-03-23T22:27:43.366Z,8.10
2023-03-23T22:30:13.178Z,9.20
2023-03-23T22:32:41.959Z,10.50
2023-03-23T22:35:13.110Z,13.60
2023-03-23T22:37:41.917Z,9.70
2023-03-23T22:40:12.008Z,8.30
2023-03-23T22:42:41.106Z,8.70
2023-03-23T22:45:10.104Z,8.40
2023-03-23T22:47:39.346Z,9.80
2023-03-23T22:50:09.833Z,8.10
2023-03-23T22:52:38.965Z,8.70
2023-03-23T22:55:09.213Z,8.90
2023-03-23T22:57:37.948Z,8.00
2023-03-23T23:00:15.204Z,10.00
2023-03-23T23:02:44.239Z,8.70
2023-03-23T23:05:13.694Z,9.50
2023-03-23T23:07:43.039Z,9.40
2023-03-23T23:10:11.827Z,8.30
2023-03-23T23:12:42.674Z,8.40
2023-03-23T23:15:13.493Z,9.00
2023-03-23T23:17:42.716Z,8.10
2023-03-23T23:20:13.261Z,9.10
2023-03-23T23:22:44.523Z,10.80
2023-03-23T23:25:14.165Z,8.60
2023-03-23T23:27:43.470Z,9.00
2023-03-23T23:30:12.968Z,8.70
2023-03-23T23:32:43.312Z,10.30
2023-03-23T23:35:14.242Z,10.10
2023-03-23T23:37:43.040Z,8.10
2023-03-23T23:40:15.699Z,10.10
2023-03-23T23:42:46.603Z,9.20
2023-03-23T23:45:16.465Z,9.00
2023-03-23T23:47:47.070Z,9.00
2023-03-23T23:50:16.064Z,8.70
2023-03-23T23:52:45.462Z,8.40
2023-03-23T23:55:18.362Z,8.00
2023-03-23T23:57:48.484Z,8.60
